Time;durP1;ratioP1;P1;durP2;ratioP2;P2;SDS_P1;SDS_P2;PMS_P1;PMS_P2;Temp;Humidity;BMP_temperature;BMP_pressure;BME280_temperature;BME280_humidity;BME280_pressure;Samples;Min_cycle;Max_cycle;Signal;HPM_P1;HPM_P2
2024/01/17 00:01:14;;;;;;;11.57;9.80;;;;;;;0.49;100.00;146188.31;5091760;28;20181;-57
2024/01/17 00:03:41;;;;;;;11.27;9.97;;;;;;;0.43;100.00;146174.50;5091722;28;20200;-57
2024/01/17 00:06:08;;;;;;;10.23;9.43;;;;;;;0.35;100.00;146153.19;5091818;28;20273;-58
2024/01/17 00:08:36;;;;;;;11.93;10.73;;;;;;;0.45;100.00;146179.53;5092092;28;20188;-58
2024/01/17 00:11:03;;;;;;;10.87;9.80;;;;;;;0.53;100.00;146198.31;5091757;28;20188;-58
2024/01/17 00:13:31;;;;;;;10.47;9.43;;;;;;;0.19;100.00;146114.38;5091630;28;20176;-58
2024/01/17 00:15:58;;;;;;;12.40;9.20;;;;;;;0.12;100.00;146096.84;5092012;28;20555;-57
2024/01/17 00:18:25;;;;;;;15.17;10.20;;;;;;;0.21;100.00;146119.38;5091944;28;20598;-57
2024/01/17 00:20:52;;;;;;;13.43;10.90;;;;;;;0.30;100.00;146141.91;5091758;28;20226;-58
2024/01/17 00:23:19;;;;;;;10.53;9.50;;;;;;;0.42;100.00;146170.78;5091936;28;20664;-58
2024/01/17 00:25:47;;;;;;;10.97;9.90;;;;;;;0.54;100.00;146199.59;5091694;28;20202;-58
2024/01/17 00:28:17;;;;;;;11.83;10.80;;;;;;;0.66;100.00;146230.91;5091897;28;20649;-57
2024/01/17 00:30:44;;;;;;;13.33;11.07;;;;;;;0.69;100.00;146238.44;5091594;28;20246;-56
2024/01/17 00:33:11;;;;;;;12.40;10.73;;;;;;;0.68;100.00;146234.69;5091824;28;20622;-57
2024/01/17 00:35:39;;;;;;;14.03;11.10;;;;;;;0.61;100.00;146217.13;5091561;28;20238;-56
2024/01/17 00:38:06;;;;;;;12.50;9.80;;;;;;;0.29;100.00;146138.19;5091786;28;20643;-58
2024/01/17 00:40:33;;;;;;;10.27;9.30;;;;;;;0.15;100.00;146104.34;5091848;28;20582;-58
2024/01/17 00:43:01;;;;;;;12.07;10.87;;;;;;;0.19;100.00;146113.13;5091349;28;20204;-58
2024/01/17 00:45:28;;;;;;;12.70;11.50;;;;;;;0.35;100.00;146154.47;5091673;28;20184;-58
2024/01/17 00:47:55;;;;;;;11.30;10.20;;;;;;;0.21;100.00;146118.16;5091441;28;20188;-57
2024/01/17 00:50:23;;;;;;;10.37;9.30;;;;;;;0.20;100.00;146115.63;5091634;28;20184;-57
2024/01/17 00:52:50;;;;;;;10.83;9.90;;;;;;;0.22;100.00;146121.88;5091691;28;20184;-58
2024/01/17 00:55:17;;;;;;;12.17;10.00;;;;;;;0.26;100.00;146131.91;5091336;28;20235;-57
2024/01/17 00:57:44;;;;;;;11.70;10.53;;;;;;;0.25;100.00;146128.16;5092336;28;20188;-57
2024/01/17 01:00:13;;;;;;;10.70;10.00;;;;;;;-0.05;100.00;146055.53;5095090;28;20242;-58
2024/01/17 01:02:42;;;;;;;10.67;9.83;;;;;;;-0.05;100.00;146055.53;5094977;28;20208;-56
2024/01/17 01:05:10;;;;;;;9.90;9.00;;;;;;;0.16;100.00;146106.88;5095302;28;20563;-58
2024/01/17 01:07:37;;;;;;;17.57;13.47;;;;;;;0.22;100.00;146120.63;5095287;28;20192;-57
2024/01/17 01:10:05;;;;;;;14.17;12.47;;;;;;;0.27;100.00;146134.41;5095316;28;20238;-57
2024/01/17 01:12:33;;;;;;;38.30;19.53;;;;;;;0.26;100.00;146131.91;5094960;28;20219;-58
2024/01/17 01:15:00;;;;;;;27.13;14.90;;;;;;;0.22;100.00;146121.88;5095180;28;20589;-58
2024/01/17 01:17:28;;;;;;;20.13;13.10;;;;;;;0.03;100.00;146074.28;5094872;28;20229;-56
2024/01/17 01:19:56;;;;;;;14.67;10.80;;;;;;;0.09;100.00;146089.31;5095106;28;20580;-57
2024/01/17 01:22:23;;;;;;;10.33;9.33;;;;;;;-0.26;100.00;146001.66;5094815;28;20677;-56
2024/01/17 01:24:50;;;;;;;10.13;9.20;;;;;;;-0.26;100.00;146002.91;5094596;28;20196;-57
2024/01/17 01:27:17;;;;;;;13.13;10.20;;;;;;;-0.24;100.00;146006.63;5095068;28;20188;-58
2024/01/17 01:29:45;;;;;;;10.27;9.47;;;;;;;-0.08;100.00;146046.72;5094861;28;20181;-57
2024/01/17 01:32:11;;;;;;;9.83;8.80;;;;;;;-0.08;100.00;146047.97;5094778;28;20184;-58
2024/01/17 01:34:40;;;;;;;10.00;8.90;;;;;;;-0.35;100.00;145980.38;5094656;28;20276;-56
2024/01/17 01:37:07;;;;;;;10.37;9.57;;;;;;;-0.30;100.00;145991.63;5094717;28;20188;-58
2024/01/17 01:39:34;;;;;;;10.70;9.57;;;;;;;-0.19;100.00;146020.44;5094715;28;20254;-57
2024/01/17 01:42:01;;;;;;;9.50;8.70;;;;;;;-0.17;100.00;146024.19;5094636;28;20238;-58
2024/01/17 01:44:28;;;;;;;8.63;8.07;;;;;;;-0.13;100.00;146034.22;5094300;28;20312;-58
2024/01/17 01:46:56;;;;;;;9.73;9.03;;;;;;;-0.16;100.00;146027.94;5094272;28;20180;-57
2024/01/17 01:49:24;;;;;;;8.00;7.50;;;;;;;-0.24;100.00;146007.91;5094158;28;20184;-57
2024/01/17 01:51:54;;;;;;;7.93;7.53;;;;;;;-0.21;100.00;146015.41;5094418;28;20188;-56
2024/01/17 01:54:23;;;;;;;9.40;7.77;;;;;;;-0.33;100.00;145985.34;5094210;28;20568;-56
2024/01/17 01:56:53;;;;;;;8.37;7.50;;;;;;;-0.29;100.00;145995.38;5094436;28;20210;-58
2024/01/17 01:59:22;;;;;;;9.50;8.90;;;;;;;-0.21;100.00;146014.19;5093996;28;20187;-58
2024/01/17 02:01:50;;;;;;;8.90;8.30;;;;;;;-0.26;100.00;146001.66;5094330;28;20589;-57
2024/01/17 02:04:17;;;;;;;9.03;8.33;;;;;;;-0.28;100.00;145996.63;5093775;28;20268;-58
2024/01/17 02:06:46;;;;;;;9.20;8.50;;;;;;;-0.27;100.00;146000.41;5093872;28;20192;-56
2024/01/17 02:09:15;;;;;;;9.23;8.63;;;;;;;-0.15;100.00;146029.19;5093206;28;20218;-58
2024/01/17 02:11:42;;;;;;;10.63;8.73;;;;;;;-0.25;100.00;146005.38;5093693;28;20180;-57
2024/01/17 02:14:11;;;;;;;7.97;7.47;;;;;;;-0.37;100.00;145974.06;5094034;28;20197;-57
2024/01/17 02:16:39;;;;;;;13.00;7.47;;;;;;;-0.46;100.00;145954.03;5094048;28;20277;-57
2024/01/17 02:19:10;;;;;;;8.53;7.93;;;;;;;-0.51;100.00;145941.50;5093600;28;20184;-57
2024/01/17 02:21:37;;;;;;;8.63;7.23;;;;;;;-0.48;100.00;145949.06;5093865;28;20188;-57
2024/01/17 02:24:20;;;;;;;7.60;7.00;;;;;;;-0.40;100.00;145966.56;5093382;28;20200;-56
2024/01/17 02:26:47;;;;;;;8.73;7.60;;;;;;;-0.30;100.00;145991.63;5093847;28;20252;-58
2024/01/17 02:29:15;;;;;;;7.43;6.93;;;;;;;-0.34;100.00;145981.63;5093436;28;20188;-58
2024/01/17 02:31:44;;;;;;;7.80;7.30;;;;;;;-0.28;100.00;145996.63;5093679;28;20601;-57
2024/01/17 02:34:11;;;;;;;8.43;7.40;;;;;;;-0.23;100.00;146009.16;5093284;28;20207;-57
2024/01/17 02:36:39;;;;;;;9.37;8.73;;;;;;;-0.39;100.00;145970.34;5093663;28;20603;-58
2024/01/17 02:39:06;;;;;;;8.90;8.20;;;;;;;-0.24;100.00;146006.63;5093119;28;20183;-58
2024/01/17 02:41:34;;;;;;;9.23;8.60;;;;;;;-0.37;100.00;145974.06;5093511;28;20180;-56
2024/01/17 02:44:02;;;;;;;7.90;7.30;;;;;;;-0.29;100.00;145994.09;5093433;28;20710;-57
2024/01/17 02:46:30;;;;;;;8.47;7.60;;;;;;;-0.57;100.00;145925.25;5093606;28;20275;-57
2024/01/17 02:48:57;;;;;;;8.67;8.07;;;;;;;-0.60;100.00;145917.75;5093372;28;20181;-59
2024/01/17 02:51:24;;;;;;;7.67;7.17;;;;;;;-0.91;100.00;145841.38;5092972;28;20188;-58
2024/01/17 02:53:51;;;;;;;8.37;7.57;;;;;;;-0.86;100.00;145853.91;5093274;28;20257;-57
2024/01/17 02:56:18;;;;;;;8.13;7.60;;;;;;;-0.75;100.00;145881.44;5092698;28;20227;-57
2024/01/17 02:58:47;;;;;;;7.97;7.17;;;;;;;-0.90;100.00;145843.91;5093087;28;20608;-57
2024/01/17 03:01:14;;;;;;;8.97;8.17;;;;;;;-0.88;100.00;145848.88;5093132;28;20188;-56
2024/01/17 03:03:42;;;;;;;9.60;8.07;;;;;;;-0.92;100.00;145838.88;5092640;28;20200;-57
2024/01/17 03:06:09;;;;;;;8.07;7.50;;;;;;;-0.82;100.00;145862.66;5093049;28;20630;-58
2024/01/17 03:08:36;;;;;;;9.50;8.87;;;;;;;-0.67;100.00;145901.47;5092968;28;20638;-57
2024/01/17 03:11:03;;;;;;;9.27;8.47;;;;;;;-0.51;100.00;145941.50;5092952;28;20696;-56
2024/01/17 03:13:30;;;;;;;9.40;8.50;;;;;;;-0.34;100.00;145981.63;5092851;28;20180;-58
2024/01/17 03:15:59;;;;;;;9.57;8.87;;;;;;;-0.28;100.00;145997.88;5092903;28;20184;-57
2024/01/17 03:18:26;;;;;;;11.13;9.13;;;;;;;-0.14;100.00;146031.72;5092821;28;20180;-58
2024/01/17 03:20:53;;;;;;;12.03;8.77;;;;;;;-0.14;100.00;146031.72;5092164;28;20184;-57
2024/01/17 03:23:20;;;;;;;10.03;9.13;;;;;;;-0.15;100.00;146029.19;5092269;28;20228;-57
2024/01/17 03:25:47;;;;;;;10.83;8.60;;;;;;;-0.59;100.00;145921.47;5092737;28;20612;-56
2024/01/17 03:28:14;;;;;;;9.20;8.40;;;;;;;-0.71;100.00;145891.44;5092600;28;20245;-58
2024/01/17 03:30:41;;;;;;;13.90;8.73;;;;;;;-0.21;100.00;146015.41;5092631;28;20184;-58
2024/01/17 03:33:09;;;;;;;8.97;8.30;;;;;;;-0.38;100.00;145972.81;5092511;28;20257;-56
2024/01/17 03:35:36;;;;;;;10.63;7.87;;;;;;;-0.24;100.00;146006.63;5092238;28;20188;-57
2024/01/17 03:38:04;;;;;;;9.40;8.67;;;;;;;-0.51;100.00;145940.31;5092219;28;20188;-57
2024/01/17 03:40:31;;;;;;;20.13;9.63;;;;;;;-0.70;100.00;145893.97;5092179;28;20200;-58
2024/01/17 03:42:58;;;;;;;10.43;9.20;;;;;;;-0.63;100.00;145911.47;5092034;28;20183;-57
2024/01/17 03:45:26;;;;;;;9.67;8.63;;;;;;;-0.55;100.00;145930.25;5091912;28;20212;-57
2024/01/17 03:47:53;;;;;;;10.93;9.07;;;;;;;-0.70;100.00;145892.69;5092327;28;20245;-57
2024/01/17 03:50:21;;;;;;;13.00;8.80;;;;;;;-0.82;100.00;145862.66;5091903;28;20191;-56
2024/01/17 03:52:49;;;;;;;10.57;8.60;;;;;;;-0.99;100.00;145821.38;5091928;28;20180;-57
2024/01/17 03:55:16;;;;;;;10.97;9.00;;;;;;;-0.89;100.00;145846.38;5092170;28;20231;-58
2024/01/17 03:57:43;;;;;;;10.90;8.70;;;;;;;-0.81;100.00;145866.44;5092166;28;20195;-59
2024/01/17 04:00:11;;;;;;;16.87;9.13;;;;;;;-1.29;100.00;145746.28;5092099;28;20184;-56
2024/01/17 04:02:38;;;;;;;13.37;8.53;;;;;;;-1.21;100.00;145767.53;5092065;28;20203;-56
2024/01/17 04:05:06;;;;;;;12.73;8.60;;;;;;;-0.94;100.00;145833.88;5091659;28;20199;-56
2024/01/17 04:07:35;;;;;;;10.40;9.00;;;;;;;-0.86;100.00;145852.66;5092093;28;20184;-58
2024/01/17 04:10:02;;;;;;;19.93;9.17;;;;;;;-0.83;100.00;145860.16;5092100;28;20245;-58
2024/01/17 04:12:30;;;;;;;10.53;8.80;;;;;;;-0.74;100.00;145883.94;5091754;28;20180;-58
2024/01/17 04:14:57;;;;;;;11.43;9.33;;;;;;;-0.69;100.00;145896.47;5091710;28;20184;-58
2024/01/17 04:17:24;;;;;;;13.13;9.33;;;;;;;-0.75;100.00;145880.19;5091981;28;20217;-58
2024/01/17 04:19:51;;;;;;;15.23;9.80;;;;;;;-0.75;100.00;145881.44;5091708;28;20188;-57
2024/01/17 04:22:18;;;;;;;13.63;9.50;;;;;;;-1.02;100.00;145813.88;5091967;28;20183;-57
2024/01/17 04:24:48;;;;;;;18.63;9.80;;;;;;;-1.54;100.00;145686.25;5091532;28;20200;-58
2024/01/17 04:27:15;;;;;;;19.63;9.80;;;;;;;-1.42;100.00;145716.25;5091989;28;20638;-58
2024/01/17 04:29:42;;;;;;;11.23;9.87;;;;;;;-1.13;100.00;145786.31;5091856;28;20639;-57
2024/01/17 04:32:09;;;;;;;14.50;10.23;;;;;;;-1.11;100.00;145791.34;5091932;28;20210;-56
2024/01/17 04:34:38;;;;;;;13.47;9.53;;;;;;;-0.90;100.00;145843.91;5095919;28;20653;-57
2024/01/17 04:37:05;;;;;;;14.43;10.10;;;;;;;-1.34;100.00;145735.00;5095847;28;20237;-57
2024/01/17 04:39:32;;;;;;;13.90;9.73;;;;;;;-1.17;100.00;145776.28;5095598;28;20191;-56
2024/01/17 04:42:01;;;;;;;13.07;8.73;;;;;;;-1.33;100.00;145736.25;5095807;28;20609;-58
2024/01/17 04:44:30;;;;;;;15.03;9.53;;;;;;;-1.34;100.00;145733.75;5095539;28;20586;-57
2024/01/17 04:46:57;;;;;;;10.30;9.37;;;;;;;-1.35;100.00;145731.25;5095324;28;20184;-57
2024/01/17 04:49:25;;;;;;;14.80;8.87;;;;;;;-1.19;100.00;145771.31;5095620;28;20214;-58
2024/01/17 04:51:53;;;;;;;11.33;9.33;;;;;;;-1.11;100.00;145791.34;5095687;28;20215;-57
2024/01/17 04:54:20;;;;;;;14.60;10.63;;;;;;;-1.02;100.00;145813.88;5095206;28;20272;-59
2024/01/17 04:56:48;;;;;;;13.33;11.90;;;;;;;-0.86;100.00;145852.66;5095481;28;20194;-58
2024/01/17 04:59:16;;;;;;;19.87;12.47;;;;;;;-1.31;100.00;145741.25;5095407;28;20219;-58
2024/01/17 05:01:43;;;;;;;21.23;10.73;;;;;;;-1.08;100.00;145798.81;5095319;28;20700;-59
2024/01/17 05:04:10;;;;;;;19.90;10.80;;;;;;;-1.31;100.00;145742.50;5095019;28;20204;-57
2024/01/17 05:06:37;;;;;;;23.37;11.03;;;;;;;-1.28;100.00;145748.78;5094966;28;20190;-56
2024/01/17 05:09:07;;;;;;;23.37;11.53;;;;;;;-1.27;100.00;145752.50;5094849;28;20184;-58
2024/01/17 05:11:34;;;;;;;24.90;12.23;;;;;;;-1.12;100.00;145788.81;5095195;28;20653;-56
2024/01/17 05:14:02;;;;;;;16.40;11.47;;;;;;;-1.11;100.00;145792.59;5094849;28;20201;-57
2024/01/17 05:16:30;;;;;;;14.57;11.00;;;;;;;-1.06;100.00;145805.06;5095334;28;20191;-57
2024/01/17 05:18:57;;;;;;;17.50;11.77;;;;;;;-1.05;100.00;145806.31;5094750;28;20184;-58
2024/01/17 05:21:24;;;;;;;14.10;12.33;;;;;;;-1.08;100.00;145798.81;5094895;28;20192;-57
2024/01/17 05:23:52;;;;;;;18.90;12.90;;;;;;;-1.11;100.00;145791.34;5094479;28;20214;-57
2024/01/17 05:26:19;;;;;;;16.63;13.60;;;;;;;-0.99;100.00;145821.38;5094900;28;20196;-56
2024/01/17 05:28:47;;;;;;;18.80;13.70;;;;;;;-0.81;100.00;145865.19;5094773;28;20176;-58
2024/01/17 05:31:15;;;;;;;18.17;12.07;;;;;;;-1.03;100.00;145811.34;5094502;28;20187;-56
2024/01/17 05:33:44;;;;;;;13.80;12.30;;;;;;;-0.86;100.00;145852.66;5095002;28;20658;-59
2024/01/17 05:36:11;;;;;;;14.50;12.30;;;;;;;-0.77;100.00;145876.44;5094341;28;20192;-57
2024/01/17 05:38:38;;;;;;;15.83;12.77;;;;;;;-0.81;100.00;145866.44;5094407;28;20222;-57
2024/01/17 05:41:05;;;;;;;21.93;12.53;;;;;;;-0.72;100.00;145888.94;5094223;28;20241;-58
2024/01/17 05:43:32;;;;;;;19.00;13.07;;;;;;;-0.92;100.00;145840.13;5094045;28;20184;-58
2024/01/17 05:45:59;;;;;;;14.17;12.70;;;;;;;-0.87;100.00;145850.13;5093531;28;20208;-57
2024/01/17 05:48:26;;;;;;;19.17;13.07;;;;;;;-0.72;100.00;145887.72;5094031;28;20184;-58
2024/01/17 05:50:55;;;;;;;13.73;12.40;;;;;;;-0.81;100.00;145866.44;5094123;28;20215;-58
2024/01/17 05:53:22;;;;;;;19.67;12.97;;;;;;;-0.59;100.00;145921.47;5093989;28;20195;-58
2024/01/17 05:55:49;;;;;;;22.47;12.70;;;;;;;-0.56;100.00;145929.03;5093990;28;20304;-57
2024/01/17 05:58:16;;;;;;;37.87;15.77;;;;;;;-0.72;100.00;145887.72;5094261;28;20532;-58
2024/01/17 06:00:43;;;;;;;39.47;16.87;;;;;;;-0.73;100.00;145885.19;5093878;28;20257;-57
2024/01/17 06:03:11;;;;;;;33.40;16.13;;;;;;;-0.56;100.00;145929.03;5093850;28;20188;-57
2024/01/17 06:05:38;;;;;;;40.97;17.40;;;;;;;-0.42;100.00;145961.59;5093742;28;20199;-56
2024/01/17 06:08:07;;;;;;;40.07;16.07;;;;;;;-0.23;100.00;146009.16;5094063;28;20632;-58
2024/01/17 06:10:34;;;;;;;42.40;16.53;;;;;;;-0.24;100.00;146006.63;5093590;28;20188;-58
2024/01/17 06:13:01;;;;;;;34.13;16.60;;;;;;;-0.01;100.00;146065.53;5093799;28;20202;-59
2024/01/17 06:15:28;;;;;;;43.53;17.40;;;;;;;0.52;100.00;146194.56;5093904;28;20668;-57
2024/01/17 06:17:56;;;;;;;38.57;17.23;;;;;;;0.78;100.00;146259.75;5093353;28;20188;-57
2024/01/17 06:20:23;;;;;;;37.63;18.47;;;;;;;1.26;100.00;146380.13;5093683;28;20711;-59
2024/01/17 06:22:50;;;;;;;30.87;16.37;;;;;;;1.79;100.00;146510.56;5093457;28;20204;-57
2024/01/17 06:25:18;;;;;;;25.23;16.47;;;;;;;2.42;100.00;146667.44;5093042;28;20208;-56
2024/01/17 06:27:45;;;;;;;29.47;18.03;;;;;;;2.93;100.00;146794.25;5093462;28;20561;-57
2024/01/17 06:30:13;;;;;;;49.77;18.23;;;;;;;3.40;100.00;146909.81;5093037;28;20184;-57
2024/01/17 06:32:43;;;;;;;39.30;17.97;;;;;;;4.06;100.00;147075.75;5093122;28;20237;-55
2024/01/17 06:35:11;;;;;;;26.87;16.83;;;;;;;4.70;100.00;147234.19;5092969;28;20180;-58
2024/01/17 06:37:38;;;;;;;34.37;15.83;;;;;;;5.23;100.00;147366.28;5093213;28;20557;-58
2024/01/17 06:40:07;;;;;;;38.60;18.00;;;;;;;5.70;100.00;147483.34;5092759;28;20242;-57
2024/01/17 06:42:36;;;;;;;27.37;18.30;;;;;;;6.30;100.00;147632.00;5092706;28;20180;-57
2024/01/17 06:45:03;;;;;;;34.23;20.17;;;;;;;6.66;100.00;147722.66;5092562;28;20265;-57
2024/01/17 06:47:30;;;;;;;32.53;21.07;;;;;;;6.88;97.69;147778.13;5092956;28;20184;-57
2024/01/17 06:49:57;;;;;;;39.60;22.43;;;;;;;7.45;96.77;147918.06;5092571;28;20180;-58
2024/01/17 06:52:24;;;;;;;56.87;24.73;;;;;;;7.99;90.83;148052.97;5093075;28;20188;-57
2024/01/17 06:54:51;;;;;;;57.90;25.93;;;;;;;8.58;86.22;148200.66;5092440;28;20230;-59
2024/01/17 06:57:19;;;;;;;69.00;31.03;;;;;;;8.61;81.86;148209.47;5092409;28;20188;-57
2024/01/17 06:59:48;;;;;;;61.60;33.63;;;;;;;9.09;79.32;148329.41;5092758;28;20717;-58
2024/01/17 07:02:15;;;;;;;62.60;35.57;;;;;;;8.83;76.97;148263.75;5092336;28;20206;-57
2024/01/17 07:04:42;;;;;;;101.07;53.03;;;;;;;9.26;75.59;148369.78;5092213;28;20230;-57
2024/01/17 07:07:09;;;;;;;107.83;52.13;;;;;;;9.77;75.25;148498.63;5092405;28;20184;-58
2024/01/17 07:09:36;;;;;;;107.93;54.13;;;;;;;9.85;72.42;148517.56;5092572;28;20234;-56
2024/01/17 07:12:05;;;;;;;121.10;55.63;;;;;;;10.19;71.98;148602.25;5092695;28;20628;-57
2024/01/17 07:14:32;;;;;;;107.00;54.73;;;;;;;10.01;70.82;148559.25;5092573;28;20180;-57
2024/01/17 07:17:00;;;;;;;93.57;43.40;;;;;;;10.75;69.09;148742.56;5092172;28;20184;-58
2024/01/17 07:19:27;;;;;;;149.70;53.67;;;;;;;12.04;67.74;149066.44;5092020;28;20242;-58
2024/01/17 07:21:55;;;;;;;119.47;52.43;;;;;;;12.69;63.08;149229.72;5092233;28;20218;-58
2024/01/17 07:24:22;;;;;;;114.90;51.67;;;;;;;12.88;60.46;149275.31;5092112;28;20184;-58
2024/01/17 07:26:49;;;;;;;132.93;51.60;;;;;;;13.21;59.95;149360.22;5092279;28;20279;-58
2024/01/17 07:29:16;;;;;;;121.80;49.23;;;;;;;13.53;58.29;149438.78;5092300;28;20558;-57
2024/01/17 07:31:43;;;;;;;129.90;49.77;;;;;;;13.63;57.09;149464.09;5092313;28;20187;-57
2024/01/17 07:34:11;;;;;;;140.93;50.53;;;;;;;14.25;54.84;149618.72;5092069;28;20249;-57
2024/01/17 07:36:38;;;;;;;112.90;47.63;;;;;;;15.12;53.25;149836.88;5092439;28;20180;-57
2024/01/17 07:39:06;;;;;;;64.97;35.23;;;;;;;15.07;51.23;149826.72;5091879;28;20216;-57
2024/01/17 07:41:33;;;;;;;77.03;36.73;;;;;;;16.23;50.65;150117.41;5092299;28;20188;-58
2024/01/17 07:44:00;;;;;;;53.20;22.30;;;;;;;16.87;45.86;150278.72;5092009;28;20185;-57
2024/01/17 07:46:27;;;;;;;96.27;35.90;;;;;;;16.59;46.83;150207.56;5091922;28;20750;-57
2024/01/17 07:48:55;;;;;;;76.03;32.27;;;;;;;16.76;47.39;150250.75;5091708;28;20619;-58
2024/01/17 07:51:23;;;;;;;120.87;40.63;;;;;;;17.40;46.03;150410.81;5091287;28;20192;-58
2024/01/17 07:53:51;;;;;;;102.30;40.00;;;;;;;17.59;45.68;150459.19;5091555;28;20184;-56
2024/01/17 07:56:18;;;;;;;42.17;23.03;;;;;;;17.53;42.30;150442.59;5091640;28;20682;-59
2024/01/17 07:58:45;;;;;;;60.17;29.27;;;;;;;18.96;41.82;150802.56;5091561;28;20231;-57
2024/01/17 08:01:12;;;;;;;28.43;15.33;;;;;;;19.17;39.09;150855.97;5091381;28;20184;-57
2024/01/17 08:03:40;;;;;;;21.03;11.47;;;;;;;19.77;37.47;151006.19;5091057;28;20198;-57
2024/01/17 08:06:08;;;;;;;24.27;13.43;;;;;;;19.32;37.59;150894.13;5091077;28;20231;-57
2024/01/17 08:08:36;;;;;;;22.53;13.10;;;;;;;19.66;37.60;150978.16;5090418;28;20270;-57
2024/01/17 08:11:04;;;;;;;19.23;12.43;;;;;;;19.75;37.52;151002.38;5100096;28;20191;-60
2024/01/17 08:13:33;;;;;;;24.02;12.88;;;;;;;19.83;36.76;151022.72;5097371;28;20626;-57
2024/01/17 08:16:00;;;;;;;18.65;13.05;;;;;;;19.28;37.19;150882.69;5096998;28;20215;-59
2024/01/17 08:18:27;;;;;;;22.05;11.73;;;;;;;20.54;36.79;151199.78;5112218;28;20183;-58
2024/01/17 08:20:54;;;;;;;11.13;9.63;;;;;;;19.84;36.43;151024.00;5111996;28;20241;-59
2024/01/17 08:23:21;;;;;;;7.22;6.70;;;;;;;20.33;35.84;151147.53;5111776;28;20569;-58
2024/01/17 08:25:50;;;;;;;6.80;6.35;;;;;;;21.38;35.22;151413.84;5112084;28;20710;-58
2024/01/17 08:28:17;;;;;;;10.52;9.50;;;;;;;21.01;35.08;151319.47;5112174;28;20199;-58
2024/01/17 08:30:44;;;;;;;7.95;7.20;;;;;;;21.07;34.87;151333.50;5112085;28;20192;-58
2024/01/17 08:33:11;;;;;;;7.05;6.50;;;;;;;20.19;36.02;151111.84;5112139;28;20646;-58
2024/01/17 08:35:38;;;;;;;10.68;7.15;;;;;;;21.15;34.87;151355.22;5112494;28;20629;-59
2024/01/17 08:38:05;;;;;;;7.43;6.70;;;;;;;22.24;34.00;151630.56;5112096;28;20183;-59
2024/01/17 08:40:33;;;;;;;6.13;5.75;;;;;;;20.87;34.62;151283.84;5112283;28;20672;-58
2024/01/17 08:43:02;;;;;;;12.23;6.70;;;;;;;20.13;35.61;151096.56;5111983;28;20191;-57
2024/01/17 08:45:29;;;;;;;19.90;8.40;;;;;;;19.90;35.69;151039.31;5111859;28;20257;-57
2024/01/17 08:47:56;;;;;;;13.07;9.57;;;;;;;20.10;35.74;151090.22;5111895;28;20213;-57
2024/01/17 08:50:23;;;;;;;10.02;8.70;;;;;;;20.24;35.53;151125.81;5111683;28;20571;-57
2024/01/17 08:52:50;;;;;;;39.85;29.58;;;;;;;21.06;35.45;151332.22;5096030;28;20192;-59
2024/01/17 08:55:17;;;;;;;21.08;16.58;;;;;;;22.20;34.01;151620.38;5091111;28;20235;-58
2024/01/17 08:57:44;;;;;;;18.00;10.07;;;;;;;21.61;34.42;151469.88;5091440;28;20688;-58
2024/01/17 09:00:15;;;;;;;13.25;8.52;;;;;;;21.13;34.21;151348.88;5091296;28;20192;-60
2024/01/17 09:02:42;;;;;;;9.40;8.90;;;;;;;20.68;34.64;151235.41;5091293;28;20192;-58
2024/01/17 09:05:09;;;;;;;12.02;10.48;;;;;;;20.22;35.85;151119.50;5091692;28;20674;-58
2024/01/17 09:07:37;;;;;;;9.15;8.27;;;;;;;20.19;35.97;151113.13;5088713;28;20249;-58
2024/01/17 09:10:04;;;;;;;11.02;9.77;;;;;;;20.17;36.38;151108.03;5091328;28;20188;-56
2024/01/17 09:12:31;;;;;;;12.77;9.55;;;;;;;20.75;35.68;151253.28;5091606;28;20234;-58
2024/01/17 09:14:59;;;;;;;11.68;9.05;;;;;;;19.96;36.67;151054.56;5091016;28;20188;-58
2024/01/17 09:17:27;;;;;;;19.05;11.18;;;;;;;19.24;37.92;150873.78;5091555;28;20200;-58
2024/01/17 09:19:54;;;;;;;9.70;9.05;;;;;;;19.33;37.95;150896.69;5092306;28;20613;-58
2024/01/17 09:22:21;;;;;;;20.67;8.43;;;;;;;18.00;40.32;150560.84;5094746;28;20185;-57
2024/01/17 09:24:48;;;;;;;8.73;7.78;;;;;;;18.37;40.32;150653.69;5094584;28;20616;-62
2024/01/17 09:27:15;;;;;;;22.13;9.90;;;;;;;18.27;40.56;150630.81;5094849;28;20228;-58
2024/01/17 09:29:45;;;;;;;10.20;9.37;;;;;;;18.61;39.93;150716.06;5094546;28;20619;-57
2024/01/17 09:32:12;;;;;;;37.87;12.40;;;;;;;18.48;40.79;150682.94;5094754;28;20616;-57
2024/01/17 09:34:41;;;;;;;25.27;10.73;;;;;;;18.77;40.77;150755.47;5094991;28;20204;-57
2024/01/17 09:37:09;;;;;;;16.42;10.00;;;;;;;18.79;40.48;150760.56;5094761;28;20222;-58
2024/01/17 09:39:37;;;;;;;13.57;8.15;;;;;;;19.60;40.48;150965.44;5094051;28;20196;-58
2024/01/17 09:42:07;;;;;;;14.45;7.45;;;;;;;18.81;41.30;150764.34;5094554;28;20188;-59
2024/01/17 09:44:35;;;;;;;19.25;8.13;;;;;;;17.98;43.37;150557.06;5094259;28;20207;-56
2024/01/17 09:47:02;;;;;;;8.07;7.38;;;;;;;18.17;43.40;150604.06;5094323;28;20527;-59
2024/01/17 09:49:30;;;;;;;6.83;4.90;;;;;;;17.80;45.15;150511.28;5094236;28;20188;-56
2024/01/17 09:52:04;;;;;;;14.83;4.80;;;;;;;17.64;45.93;150471.91;5093918;28;20192;-58
2024/01/17 09:54:34;;;;;;;4.80;4.40;;;;;;;17.15;47.28;150348.56;5094066;28;20746;-58
2024/01/17 09:57:07;;;;;;;5.40;4.70;;;;;;;16.17;49.13;150100.84;5094443;28;20601;-58
2024/01/17 09:59:38;;;;;;;5.17;4.77;;;;;;;16.15;51.23;150095.81;5093980;28;20184;-57
2024/01/17 10:02:07;;;;;;;8.10;5.30;;;;;;;16.74;51.15;150244.41;5094061;28;20196;-56
2024/01/17 10:04:35;;;;;;;5.73;4.23;;;;;;;16.96;50.10;150300.31;5093658;28;20177;-57
2024/01/17 10:07:03;;;;;;;5.27;4.60;;;;;;;16.39;51.98;150156.72;5094086;28;20585;-58
2024/01/17 10:09:31;;;;;;;7.73;5.50;;;;;;;15.47;54.49;149925.69;5094206;28;20687;-57
2024/01/17 10:11:59;;;;;;;5.67;4.30;;;;;;;15.42;55.59;149913.00;5093716;28;20241;-57
2024/01/17 10:14:26;;;;;;;6.73;5.00;;;;;;;15.41;56.69;149910.44;5093432;28;20188;-57
2024/01/17 10:16:53;;;;;;;10.10;5.43;;;;;;;15.41;57.50;149911.72;5093264;28;20184;-57
2024/01/17 10:19:24;;;;;;;4.40;4.10;;;;;;;14.89;59.08;149781.09;5093645;28;20245;-58
2024/01/17 10:21:52;;;;;;;5.23;4.73;;;;;;;14.96;60.58;149797.56;5093625;28;20185;-57
2024/01/17 10:24:20;;;;;;;5.37;4.33;;;;;;;15.13;61.74;149839.41;5093523;28;20629;-57
2024/01/17 10:26:51;;;;;;;4.20;4.00;;;;;;;14.30;65.27;149631.41;5093886;28;20223;-57
2024/01/17 10:29:18;;;;;;;5.20;4.77;;;;;;;14.29;68.64;149628.88;5093692;28;20634;-57
2024/01/17 10:31:45;;;;;;;5.07;4.70;;;;;;;14.90;67.09;149783.59;5092968;28;20192;-58
2024/01/17 10:34:13;;;;;;;4.57;4.37;;;;;;;14.34;69.49;149641.56;5093034;28;20184;-57
2024/01/17 10:36:41;;;;;;;5.37;4.63;;;;;;;14.25;72.17;149618.72;5092868;28;20238;-57
2024/01/17 10:39:11;;;;;;;3.87;3.60;;;;;;;14.03;72.03;149564.22;5093234;28;20203;-59
2024/01/17 10:41:50;;;;;;;3.73;3.43;;;;;;;13.87;72.36;149524.94;5093820;28;20191;-58
2024/01/17 10:44:19;;;;;;;3.50;3.40;;;;;;;12.87;80.46;149274.03;5093495;28;20228;-56
2024/01/17 10:46:48;;;;;;;7.70;4.60;;;;;;;13.62;78.97;149461.59;5093185;28;20261;-56
2024/01/17 10:49:16;;;;;;;6.73;4.23;;;;;;;14.31;74.66;149633.91;5092874;28;20245;-58
2024/01/17 10:51:54;;;;;;;3.70;3.50;;;;;;;13.12;79.74;149337.41;5092931;28;20183;-56
2024/01/17 10:54:27;;;;;;;4.10;3.90;;;;;;;14.09;77.53;149580.69;5092834;28;20652;-56
2024/01/17 10:56:56;;;;;;;4.93;3.40;;;;;;;13.50;80.50;149432.41;5092769;28;20263;-57
2024/01/17 10:59:23;;;;;;;4.20;3.80;;;;;;;13.20;83.02;149356.38;5092591;28;20188;-57
2024/01/17 11:01:52;;;;;;;4.10;3.63;;;;;;;13.64;80.48;149466.63;5092865;28;20263;-58
2024/01/17 11:04:23;;;;;;;4.87;3.47;;;;;;;13.23;81.50;149365.28;5092914;28;20631;-57
2024/01/17 11:06:51;;;;;;;3.40;2.93;;;;;;;13.59;77.26;149453.94;5092596;28;20257;-57
2024/01/17 11:09:19;;;;;;;3.40;3.07;;;;;;;14.10;74.78;149581.94;5092425;28;20184;-56
2024/01/17 11:11:48;;;;;;;4.03;3.50;;;;;;;14.15;73.52;149595.91;5092233;28;20192;-56
2024/01/17 11:14:17;;;;;;;3.20;3.00;;;;;;;14.25;73.92;149618.72;5092487;28;20187;-56